Airfield :
LOGIN :

Register | Disclaimer

   EN    FR    IT 

 










Legend :    VFR   Marginal VFR   IFR   Intensive IFR   Very Intensive IFR
Visi :
Ceiling :
>= 8 km
>= 3000ft
5 to 8 km
1000 to 3000 ft
1500m to 5 km
500 to 1000 ft
800 to 1500m
200 to 500 ft
< 800m
< 200 ft
Symbols :   Thunderstorms  Fog  Heavy snow  Heavy precipitations  Wind > 20 kt
SIGMETs :     Misc.  Thunderstorms  Icing  Turbulence  Mountain Waves  Volcanic Ashes






- Airport Elevation : 295 ft
- IATA code : BWE


EDVE - Braunschweig

CURRENT METAR :
  • 051120Z 22006KT 180V250 CAVOK 04/01 Q0999

EXPIRED METARs :
  • 051050Z 23007KT CAVOK 04/00 Q0999
  • 051020Z 22007KT CAVOK 03/M00 Q0998
  • 050950Z 20006KT 9999 FEW028 03/M01 Q0998
  • 050920Z 15005KT 120V200 9999 FEW039 BKN045 01/M01 Q0998
  • 050850Z 20004KT CAVOK 01/M01 Q0997
  • 050820Z 19004KT 130V230 CAVOK 01/M01 Q0997

TAF TAF EDVE
Valid from the 05 at 12:00 until the 05 at 21:00 UTC


051100Z 0512/0521 20005KT 9999 FEW035
BECMG 0517/0519 13004KT



MET'MAP, your aeronautical weather chart ! - Copyright ORBIFLY December 2007 - Disclaimer

ORBIFLY MET'MAP TEAM :

Programming & Development : Alexandra Zaïnal
Concept & original design : Baudouin d'Aumeries
Assistance for programming : Marc-Olivier Méhu
Technical & hardware support : Manuel Goepfert

Contact : metmap@orbifly.com




SOURCES & CREDITS :

   NOAA